الصفحة الرئيسية
METAR-TAF:

METAR-TAF

مطار :

أورسك, روسيا

دائرة عرض: 51-04-18N, خط طول: 058-35-48E, ارتفاع: 277 متر

مراقبة الطقس الحالي

تاريخ ووقت الإصدار 48 دقيقة قبل الساعة 21:00UTC
ريح 6 عقدة من الجنوب/الجنوب الشرقي
درجة الحرارة -21°درجة مئوية
الرطوبة 70%
ضغط 1036 hPa
الرؤية: 9000 متر
غيوم مفككة على ارتفاع 400 قدم

METAR: UWOR 182100Z 16003MPS 9000 BKN004 M21/M25 Q1036 R25/810255 NOSIG RMK QBB130 QFE753/1004

زمن: 02:48 (21:48 UTC)

توقعات

تاريخ ووقت الإصدار 1ساعة و 57 دقيقة قبل الساعة 19:51UTC
التوقعات صالحة من18 الساعة 21 UTC إلى 19 الساعة 06 UTC
ريح 8 عقدة من الجنوب الشرقي
الرؤية: 3100 متر
غيوم مفككة على ارتفاع 600 قدم
غشاء
مؤقت
من 18 الساعة 21 UTC إلى 19 الساعة 04 UTC
ريح 10 عقدة من الجنوب/الجنوب الشرقي
الرؤية: 1000 متر
غيوم مفككة على ارتفاع 400 قدم
غشاء

TAF: UWOR 181951Z 1821/1906 13004MPS 3100 BR BKN006 TEMPO 1821/1904 15005MPS 1000 BR BKN004

أرصاد الطقس والتوقعات من أكثر من 4000 مطار (تقارير الطقس للمطار METAR والتنبؤ بالطقس بالمطارTAF).

المحطات المتاحة هي النقط الصفراء والحمراء على الخريطة.

حرك المؤشر فوق النقطة لمعرفة اسم المحطة.

ثم انقر لمعرفة أرصاد وتوقعات الطقس.

لتغيير الخارطة: اضغط على الأزرار الخضراء مع رمز الصليب الأسود للتكبير. على الزر الأخضر مع شرطة للتصغير، أو على الأسهم الخضراء للخرائط المجاورة.


METAR-TAF: